sensor_id;sensor_type;location;lat;lon;timestamp;temperature;humidity
1524;DHT22;755;53.658;10.118;2023-07-13T00:10:11;16.30;99.90
1524;DHT22;755;53.658;10.118;2023-07-13T00:31:49;15.80;99.90
1524;DHT22;755;53.658;10.118;2023-07-13T00:41:53;15.70;99.90
1524;DHT22;755;53.658;10.118;2023-07-13T00:51:57;15.60;99.90
1524;DHT22;755;53.658;10.118;2023-07-13T01:02:01;15.40;99.90
1524;DHT22;755;53.658;10.118;2023-07-13T01:12:04;15.30;99.90
1524;DHT22;755;53.658;10.118;2023-07-13T01:22:10;15.00;99.90
1524;DHT22;755;53.658;10.118;2023-07-13T01:32:15;14.90;99.90
1524;DHT22;755;53.658;10.118;2023-07-13T01:42:19;14.90;99.90
1524;DHT22;755;53.658;10.118;2023-07-13T01:52:21;14.90;99.90
1524;DHT22;755;53.658;10.118;2023-07-13T02:02:24;14.80;99.90
1524;DHT22;755;53.658;10.118;2023-07-13T02:12:26;14.80;99.90
1524;DHT22;755;53.658;10.118;2023-07-13T02:22:30;14.80;99.90
1524;DHT22;755;53.658;10.118;2023-07-13T02:32:31;14.80;99.90
1524;DHT22;755;53.658;10.118;2023-07-13T02:42:35;14.60;99.90
1524;DHT22;755;53.658;10.118;2023-07-13T02:52:37;14.60;99.90
1524;DHT22;755;53.658;10.118;2023-07-13T03:02:40;14.50;99.90
1524;DHT22;755;53.658;10.118;2023-07-13T03:12:42;14.60;99.90
1524;DHT22;755;53.658;10.118;2023-07-13T03:22:46;14.50;99.90
1524;DHT22;755;53.658;10.118;2023-07-13T03:32:48;14.50;99.90
1524;DHT22;755;53.658;10.118;2023-07-13T03:42:52;14.60;99.90
1524;DHT22;755;53.658;10.118;2023-07-13T03:52:53;14.60;99.90
1524;DHT22;755;53.658;10.118;2023-07-13T04:02:58;14.50;99.90
1524;DHT22;755;53.658;10.118;2023-07-13T04:13:00;14.50;99.90
1524;DHT22;755;53.658;10.118;2023-07-13T04:23:04;14.60;99.90
1524;DHT22;755;53.658;10.118;2023-07-13T04:33:06;14.70;99.90
1524;DHT22;755;53.658;10.118;2023-07-13T04:43:10;14.80;99.90
1524;DHT22;755;53.658;10.118;2023-07-13T04:53:12;14.80;99.90
1524;DHT22;755;53.658;10.118;2023-07-13T05:03:16;15.00;99.90
1524;DHT22;755;53.658;10.118;2023-07-13T05:13:18;15.40;99.90
1524;DHT22;755;53.658;10.118;2023-07-13T05:23:21;16.20;99.90
1524;DHT22;755;53.658;10.118;2023-07-13T05:33:24;16.40;99.90
1524;DHT22;755;53.658;10.118;2023-07-13T05:43:27;16.30;99.90
1524;DHT22;755;53.658;10.118;2023-07-13T05:53:29;16.50;99.90
1524;DHT22;755;53.658;10.118;2023-07-13T06:03:33;16.50;99.90
1524;DHT22;755;53.658;10.118;2023-07-13T06:13:35;16.60;99.90
1524;DHT22;755;53.658;10.118;2023-07-13T06:23:39;16.70;99.90
1524;DHT22;755;53.658;10.118;2023-07-13T06:33:43;16.70;99.90
1524;DHT22;755;53.658;10.118;2023-07-13T06:44:01;16.80;99.90
1524;DHT22;755;53.658;10.118;2023-07-13T06:54:03;17.00;99.90
1524;DHT22;755;53.658;10.118;2023-07-13T07:04:06;17.20;99.90
1524;DHT22;755;53.658;10.118;2023-07-13T07:14:09;17.40;99.90
1524;DHT22;755;53.658;10.118;2023-07-13T07:24:12;17.70;99.90
1524;DHT22;755;53.658;10.118;2023-07-13T07:34:16;18.10;99.90
1524;DHT22;755;53.658;10.118;2023-07-13T07:44:20;18.60;99.90
1524;DHT22;755;53.658;10.118;2023-07-13T07:54:22;18.80;99.90
1524;DHT22;755;53.658;10.118;2023-07-13T08:04:25;19.10;99.90
1524;DHT22;755;53.658;10.118;2023-07-13T08:14:27;19.10;99.90
1524;DHT22;755;53.658;10.118;2023-07-13T08:24:30;20.30;1.00
1524;DHT22;755;53.658;10.118;2023-07-13T08:34:32;20.50;1.00
1524;DHT22;755;53.658;10.118;2023-07-13T08:44:39;20.40;99.90
1524;DHT22;755;53.658;10.118;2023-07-13T08:54:49;20.50;91.30
1524;DHT22;755;53.658;10.118;2023-07-13T09:04:57;20.40;99.90
1524;DHT22;755;53.658;10.118;2023-07-13T09:15:02;21.40;99.90
1524;DHT22;755;53.658;10.118;2023-07-13T09:25:18;22.40;1.00
1524;DHT22;755;53.658;10.118;2023-07-13T09:35:26;21.60;1.00
1524;DHT22;755;53.658;10.118;2023-07-13T09:45:34;22.20;1.00
1524;DHT22;755;53.658;10.118;2023-07-13T09:55:38;23.10;1.00
1524;DHT22;755;53.658;10.118;2023-07-13T10:05:43;23.50;99.90
1524;DHT22;755;53.658;10.118;2023-07-13T10:15:46;22.40;1.00
1524;DHT22;755;53.658;10.118;2023-07-13T10:25:52;23.10;99.90
1524;DHT22;755;53.658;10.118;2023-07-13T10:35:59;21.90;1.00
1524;DHT22;755;53.658;10.118;2023-07-13T10:46:06;22.60;1.00
1524;DHT22;755;53.658;10.118;2023-07-13T11:07:19;23.00;1.00
1524;DHT22;755;53.658;10.118;2023-07-13T11:17:35;23.00;99.90
1524;DHT22;755;53.658;10.118;2023-07-13T11:27:41;23.20;1.00
1524;DHT22;755;53.658;10.118;2023-07-13T11:37:45;22.80;1.00
1524;DHT22;755;53.658;10.118;2023-07-13T11:47:48;22.50;1.00
1524;DHT22;755;53.658;10.118;2023-07-13T11:57:53;22.00;1.00
1524;DHT22;755;53.658;10.118;2023-07-13T12:07:56;22.10;1.00
1524;DHT22;755;53.658;10.118;2023-07-13T12:17:58;22.00;27.60
1524;DHT22;755;53.658;10.118;2023-07-13T12:28:20;21.40;1.00
1524;DHT22;755;53.658;10.118;2023-07-13T12:38:24;19.10;99.90
1524;DHT22;755;53.658;10.118;2023-07-13T12:48:28;17.70;99.90
1524;DHT22;755;53.658;10.118;2023-07-13T12:58:32;17.00;99.90
1524;DHT22;755;53.658;10.118;2023-07-13T13:08:39;17.90;99.90
1524;DHT22;755;53.658;10.118;2023-07-13T13:18:43;19.70;99.90
1524;DHT22;755;53.658;10.118;2023-07-13T13:28:46;19.90;99.90
1524;DHT22;755;53.658;10.118;2023-07-13T13:38:50;20.00;99.90
1524;DHT22;755;53.658;10.118;2023-07-13T13:48:53;19.90;99.90
1524;DHT22;755;53.658;10.118;2023-07-13T13:58:56;19.50;99.90
1524;DHT22;755;53.658;10.118;2023-07-13T14:09:00;19.40;99.90
1524;DHT22;755;53.658;10.118;2023-07-13T14:19:03;19.30;99.90
1524;DHT22;755;53.658;10.118;2023-07-13T14:29:12;19.70;99.90
1524;DHT22;755;53.658;10.118;2023-07-13T14:39:17;19.40;99.90
1524;DHT22;755;53.658;10.118;2023-07-13T14:49:25;19.00;1.00
1524;DHT22;755;53.658;10.118;2023-07-13T14:59:27;19.60;99.90
1524;DHT22;755;53.658;10.118;2023-07-13T15:09:31;19.20;36.00
1524;DHT22;755;53.658;10.118;2023-07-13T15:19:33;19.20;99.90
1524;DHT22;755;53.658;10.118;2023-07-13T15:29:38;19.60;99.90
1524;DHT22;755;53.658;10.118;2023-07-13T15:39:43;19.60;1.00
1524;DHT22;755;53.658;10.118;2023-07-13T15:49:46;19.60;99.90
1524;DHT22;755;53.658;10.118;2023-07-13T15:59:48;19.60;99.90
1524;DHT22;755;53.658;10.118;2023-07-13T16:09:51;19.70;1.00
1524;DHT22;755;53.658;10.118;2023-07-13T16:19:53;19.30;99.90
1524;DHT22;755;53.658;10.118;2023-07-13T16:29:58;19.60;1.00
1524;DHT22;755;53.658;10.118;2023-07-13T16:40:00;19.50;1.00
1524;DHT22;755;53.658;10.118;2023-07-13T16:50:17;19.40;99.90
1524;DHT22;755;53.658;10.118;2023-07-13T17:00:22;19.40;1.00
1524;DHT22;755;53.658;10.118;2023-07-13T17:10:29;19.30;36.20
1524;DHT22;755;53.658;10.118;2023-07-13T17:20:35;19.20;1.00
1524;DHT22;755;53.658;10.118;2023-07-13T17:30:40;19.00;99.90
1524;DHT22;755;53.658;10.118;2023-07-13T17:40:42;18.80;99.90
1524;DHT22;755;53.658;10.118;2023-07-13T17:50:46;18.80;99.90
1524;DHT22;755;53.658;10.118;2023-07-13T18:00:50;18.60;16.00
1524;DHT22;755;53.658;10.118;2023-07-13T18:10:54;18.70;99.90
1524;DHT22;755;53.658;10.118;2023-07-13T18:20:56;18.60;1.00
1524;DHT22;755;53.658;10.118;2023-07-13T18:30:59;18.50;1.00
1524;DHT22;755;53.658;10.118;2023-07-13T18:41:01;18.30;15.40
1524;DHT22;755;53.658;10.118;2023-07-13T18:51:05;18.30;1.00
1524;DHT22;755;53.658;10.118;2023-07-13T19:01:18;18.30;66.40
1524;DHT22;755;53.658;10.118;2023-07-13T19:11:21;18.20;1.00
1524;DHT22;755;53.658;10.118;2023-07-13T19:21:32;18.10;1.00
1524;DHT22;755;53.658;10.118;2023-07-13T19:31:36;18.00;61.90
1524;DHT22;755;53.658;10.118;2023-07-13T19:41:39;17.90;1.00
1524;DHT22;755;53.658;10.118;2023-07-13T19:51:43;17.80;1.00
1524;DHT22;755;53.658;10.118;2023-07-13T20:01:46;17.80;1.00
1524;DHT22;755;53.658;10.118;2023-07-13T20:11:50;17.70;1.00
1524;DHT22;755;53.658;10.118;2023-07-13T20:21:52;17.70;1.00
1524;DHT22;755;53.658;10.118;2023-07-13T20:31:57;17.00;99.90
1524;DHT22;755;53.658;10.118;2023-07-13T20:42:00;16.70;99.90
1524;DHT22;755;53.658;10.118;2023-07-13T20:52:09;16.50;99.90
1524;DHT22;755;53.658;10.118;2023-07-13T21:02:25;16.40;99.90
1524;DHT22;755;53.658;10.118;2023-07-13T21:12:29;16.30;99.90
1524;DHT22;755;53.658;10.118;2023-07-13T21:22:31;16.20;99.90
1524;DHT22;755;53.658;10.118;2023-07-13T21:32:34;16.00;99.90
1524;DHT22;755;53.658;10.118;2023-07-13T21:42:36;15.90;99.90
1524;DHT22;755;53.658;10.118;2023-07-13T21:52:39;15.80;99.90
1524;DHT22;755;53.658;10.118;2023-07-13T22:02:41;15.60;99.90
1524;DHT22;755;53.658;10.118;2023-07-13T22:12:45;15.50;99.90
1524;DHT22;755;53.658;10.118;2023-07-13T22:22:48;15.20;99.90
1524;DHT22;755;53.658;10.118;2023-07-13T22:32:52;15.20;99.90
1524;DHT22;755;53.658;10.118;2023-07-13T22:42:55;15.10;99.90
1524;DHT22;755;53.658;10.118;2023-07-13T22:52:58;15.00;99.90
1524;DHT22;755;53.658;10.118;2023-07-13T23:03:00;14.90;99.90
1524;DHT22;755;53.658;10.118;2023-07-13T23:13:05;14.70;99.90
1524;DHT22;755;53.658;10.118;2023-07-13T23:23:10;14.60;99.90
1524;DHT22;755;53.658;10.118;2023-07-13T23:33:20;14.60;99.90
1524;DHT22;755;53.658;10.118;2023-07-13T23:43:22;14.40;99.90
1524;DHT22;755;53.658;10.118;2023-07-13T23:53:26;14.20;99.90
